sensor_id;sensor_type;location;lat;lon;timestamp;pressure;altitude;pressure_sealevel;temperature;humidity
50650;BME280;36621;60.058;30.346;2023-03-04T00:03:06;98826.94;;;0.34;61.92
50650;BME280;36621;60.058;30.346;2023-03-04T00:10:41;98716.56;;;-0.24;61.95
50650;BME280;36621;60.058;30.346;2023-03-04T00:18:13;98677.44;;;-0.47;62.01
50650;BME280;36621;60.058;30.346;2023-03-04T00:25:46;98754.97;;;0.04;62.04
50650;BME280;36621;60.058;30.346;2023-03-04T00:33:18;98765.91;;;0.24;62.38
50650;BME280;36621;60.058;30.346;2023-03-04T00:40:51;98718.78;;;0.06;61.98
50650;BME280;36621;60.058;30.346;2023-03-04T00:48:24;98741.25;;;0.27;62.06
50650;BME280;36621;60.058;30.346;2023-03-04T00:55:58;98721.81;;;0.15;62.33
50650;BME280;36621;60.058;30.346;2023-03-04T01:03:30;98629.97;;;-0.47;62.61
50650;BME280;36621;60.058;30.346;2023-03-04T01:11:04;98705.53;;;0.27;62.46
50650;BME280;36621;60.058;30.346;2023-03-04T01:18:36;98701.56;;;0.29;62.70
50650;BME280;36621;60.058;30.346;2023-03-04T01:26:10;98687.28;;;0.24;62.36
50650;BME280;36621;60.058;30.346;2023-03-04T01:33:42;98596.06;;;-0.31;62.49
50650;BME280;36621;60.058;30.346;2023-03-04T01:41:17;98673.78;;;0.19;63.29
50650;BME280;36621;60.058;30.346;2023-03-04T01:48:53;98631.47;;;-0.02;62.17
50650;BME280;36621;60.058;30.346;2023-03-04T01:56:28;98657.50;;;-0.02;63.23
50650;BME280;36621;60.058;30.346;2023-03-04T02:04:01;98629.06;;;-0.30;63.27
50650;BME280;36621;60.058;30.346;2023-03-04T02:11:35;98604.81;;;-0.41;63.22
50650;BME280;36621;60.058;30.346;2023-03-04T02:19:14;98532.84;;;-0.81;63.62
50650;BME280;36621;60.058;30.346;2023-03-04T02:26:48;98644.50;;;-0.15;63.94
50650;BME280;36621;60.058;30.346;2023-03-04T02:34:24;98631.28;;;-0.22;63.98
50650;BME280;36621;60.058;30.346;2023-03-04T02:42:00;98593.13;;;-0.29;63.89
50650;BME280;36621;60.058;30.346;2023-03-04T02:49:36;98609.41;;;-0.09;63.89
50650;BME280;36621;60.058;30.346;2023-03-04T02:57:11;98532.34;;;-0.51;64.62
50650;BME280;36621;60.058;30.346;2023-03-04T03:04:46;98594.66;;;-0.11;64.33
50650;BME280;36621;60.058;30.346;2023-03-04T03:12:33;98590.75;;;0.02;64.58
50650;BME280;36621;60.058;30.346;2023-03-04T03:20:22;98546.00;;;-0.53;65.62
50650;BME280;36621;60.058;30.346;2023-03-04T03:28:05;98462.88;;;-1.12;66.89
50650;BME280;36621;60.058;30.346;2023-03-04T03:35:40;98472.75;;;-1.13;67.29
50650;BME280;36621;60.058;30.346;2023-03-04T03:43:18;98541.09;;;-0.61;67.46
50650;BME280;36621;60.058;30.346;2023-03-04T03:50:53;98488.78;;;-1.18;68.70
50650;BME280;36621;60.058;30.346;2023-03-04T03:58:34;98518.28;;;-0.91;69.06
50650;BME280;36621;60.058;30.346;2023-03-04T04:06:07;98528.09;;;-0.74;68.37
50650;BME280;36621;60.058;30.346;2023-03-04T04:13:41;98529.75;;;-0.68;68.57
50650;BME280;36621;60.058;30.346;2023-03-04T04:21:17;98524.38;;;-0.73;68.46
50650;BME280;36621;60.058;30.346;2023-03-04T04:28:51;98539.81;;;-0.80;69.26
50650;BME280;36621;60.058;30.346;2023-03-04T04:36:24;98516.72;;;-0.86;68.71
50650;BME280;36621;60.058;30.346;2023-03-04T04:43:57;98537.31;;;-0.65;68.96
50650;BME280;36621;60.058;30.346;2023-03-04T04:51:30;98455.50;;;-1.00;68.67
50650;BME280;36621;60.058;30.346;2023-03-04T04:59:06;98495.56;;;-0.56;68.53
50650;BME280;36621;60.058;30.346;2023-03-04T05:06:39;98444.88;;;-0.90;68.19
50650;BME280;36621;60.058;30.346;2023-03-04T05:14:18;98539.19;;;-0.06;68.35
50650;BME280;36621;60.058;30.346;2023-03-04T05:21:54;98535.13;;;-0.08;68.10
50650;BME280;36621;60.058;30.346;2023-03-04T05:29:33;98531.84;;;0.22;67.26
50650;BME280;36621;60.058;30.346;2023-03-04T05:37:08;98442.63;;;-0.43;67.33
50650;BME280;36621;60.058;30.346;2023-03-04T05:44:44;98434.34;;;-0.69;68.37
50650;BME280;36621;60.058;30.346;2023-03-04T05:52:33;98532.78;;;0.43;67.00
50650;BME280;36621;60.058;30.346;2023-03-04T06:00:24;98444.81;;;0.08;65.67
50650;BME280;36621;60.058;30.346;2023-03-04T06:07:58;98466.50;;;-0.04;65.95
50650;BME280;36621;60.058;30.346;2023-03-04T06:15:32;98522.16;;;0.16;66.23
50650;BME280;36621;60.058;30.346;2023-03-04T06:23:06;98552.47;;;0.16;66.45
50650;BME280;36621;60.058;30.346;2023-03-04T06:30:40;98528.13;;;-0.09;67.03
50650;BME280;36621;60.058;30.346;2023-03-04T06:38:12;98551.22;;;0.29;66.27
50650;BME280;36621;60.058;30.346;2023-03-04T06:45:46;98543.09;;;0.62;66.55
50650;BME280;36621;60.058;30.346;2023-03-04T06:53:18;98532.34;;;0.62;65.76
50650;BME280;36621;60.058;30.346;2023-03-04T07:00:51;98555.00;;;0.86;66.25
50650;BME280;36621;60.058;30.346;2023-03-04T07:08:24;98562.09;;;1.08;65.68
50650;BME280;36621;60.058;30.346;2023-03-04T07:15:58;98531.25;;;1.31;65.09
50650;BME280;36621;60.058;30.346;2023-03-04T07:23:30;98565.19;;;1.63;63.85
50650;BME280;36621;60.058;30.346;2023-03-04T07:31:20;98553.63;;;1.63;65.18
50650;BME280;36621;60.058;30.346;2023-03-04T07:38:52;98567.09;;;1.83;64.53
50650;BME280;36621;60.058;30.346;2023-03-04T07:46:26;98569.47;;;1.44;65.46
50650;BME280;36621;60.058;30.346;2023-03-04T07:53:59;98576.50;;;1.65;64.96
50650;BME280;36621;60.058;30.346;2023-03-04T08:01:33;98585.09;;;1.67;64.36
50650;BME280;36621;60.058;30.346;2023-03-04T08:09:10;98578.97;;;2.18;63.33
50650;BME280;36621;60.058;30.346;2023-03-04T08:16:44;98591.00;;;2.57;62.18
50650;BME280;36621;60.058;30.346;2023-03-04T08:24:16;98588.06;;;2.58;62.17
50650;BME280;36621;60.058;30.346;2023-03-04T08:31:50;98599.81;;;3.04;61.87
50650;BME280;36621;60.058;30.346;2023-03-04T08:39:23;98606.00;;;3.04;60.58
50650;BME280;36621;60.058;30.346;2023-03-04T08:46:55;98603.19;;;3.30;60.09
50650;BME280;36621;60.058;30.346;2023-03-04T08:54:29;98564.94;;;3.18;59.14
50650;BME280;36621;60.058;30.346;2023-03-04T09:02:02;98594.88;;;3.16;58.94
50650;BME280;36621;60.058;30.346;2023-03-04T09:09:34;98607.81;;;3.29;59.29
50650;BME280;36621;60.058;30.346;2023-03-04T09:17:06;98602.94;;;3.32;58.83
50650;BME280;36621;60.058;30.346;2023-03-04T09:24:38;98604.94;;;3.55;57.69
50650;BME280;36621;60.058;30.346;2023-03-04T09:32:11;98591.97;;;3.07;58.56
50650;BME280;36621;60.058;30.346;2023-03-04T09:39:43;98612.97;;;3.10;58.13
50650;BME280;36621;60.058;30.346;2023-03-04T09:47:17;98612.84;;;2.60;59.89
50650;BME280;36621;60.058;30.346;2023-03-04T09:54:58;98605.31;;;2.52;59.35
50650;BME280;36621;60.058;30.346;2023-03-04T10:02:43;98623.91;;;2.54;59.07
50650;BME280;36621;60.058;30.346;2023-03-04T10:10:19;98641.41;;;2.41;59.55
50650;BME280;36621;60.058;30.346;2023-03-04T10:17:56;98637.38;;;2.49;58.74
50650;BME280;36621;60.058;30.346;2023-03-04T10:25:32;98635.22;;;2.35;59.44
50650;BME280;36621;60.058;30.346;2023-03-04T10:33:11;98577.88;;;2.04;59.23
50650;BME280;36621;60.058;30.346;2023-03-04T10:40:43;98619.59;;;2.48;58.48
50650;BME280;36621;60.058;30.346;2023-03-04T10:48:24;98657.78;;;3.01;57.44
50650;BME280;36621;60.058;30.346;2023-03-04T10:55:57;98657.81;;;2.75;56.70
50650;BME280;36621;60.058;30.346;2023-03-04T11:03:32;98625.22;;;2.72;56.93
50650;BME280;36621;60.058;30.346;2023-03-04T11:11:23;98636.00;;;2.51;57.40
50650;BME280;36621;60.058;30.346;2023-03-04T11:18:59;98648.41;;;2.42;57.44
50650;BME280;36621;60.058;30.346;2023-03-04T11:26:36;98671.03;;;2.72;57.53
50650;BME280;36621;60.058;30.346;2023-03-04T11:34:21;98678.22;;;3.23;56.59
50650;BME280;36621;60.058;30.346;2023-03-04T11:42:02;98630.59;;;2.77;56.70
50650;BME280;36621;60.058;30.346;2023-03-04T11:50:02;98689.50;;;3.25;56.36
50650;BME280;36621;60.058;30.346;2023-03-04T11:57:49;98676.03;;;3.35;55.51
50650;BME280;36621;60.058;30.346;2023-03-04T12:05:27;98632.00;;;2.49;56.17
50650;BME280;36621;60.058;30.346;2023-03-04T12:13:23;98689.66;;;2.53;57.37
50650;BME280;36621;60.058;30.346;2023-03-04T12:21:16;98609.34;;;2.14;56.91
50650;BME280;36621;60.058;30.346;2023-03-04T12:28:56;98630.09;;;2.03;57.08
50650;BME280;36621;60.058;30.346;2023-03-04T12:36:42;98703.91;;;2.64;57.22
50650;BME280;36621;60.058;30.346;2023-03-04T12:44:16;98674.53;;;2.72;55.94
50650;BME280;36621;60.058;30.346;2023-03-04T12:51:55;98617.19;;;2.36;55.93
50650;BME280;36621;60.058;30.346;2023-03-04T12:59:40;98574.63;;;1.91;55.97
50650;BME280;36621;60.058;30.346;2023-03-04T13:07:57;98666.72;;;2.30;56.59
50650;BME280;36621;60.058;30.346;2023-03-04T13:16:04;98735.16;;;2.80;56.59
50650;BME280;36621;60.058;30.346;2023-03-04T13:24:39;98599.13;;;1.80;56.42
50650;BME280;36621;60.058;30.346;2023-03-04T13:32:24;98639.47;;;1.85;56.27
50650;BME280;36621;60.058;30.346;2023-03-04T13:40:41;98674.22;;;2.02;56.76
50650;BME280;36621;60.058;30.346;2023-03-04T13:48:27;98730.78;;;2.22;56.81
50650;BME280;36621;60.058;30.346;2023-03-04T13:56:20;98766.06;;;2.21;57.13
50650;BME280;36621;60.058;30.346;2023-03-04T14:03:55;98741.50;;;1.86;57.36
50650;BME280;36621;60.058;30.346;2023-03-04T14:11:33;98714.47;;;1.55;57.56
50650;BME280;36621;60.058;30.346;2023-03-04T14:19:15;98748.44;;;1.72;57.29
50650;BME280;36621;60.058;30.346;2023-03-04T14:26:49;98773.19;;;1.74;57.35
50650;BME280;36621;60.058;30.346;2023-03-04T14:34:25;98789.59;;;1.78;57.97
50650;BME280;36621;60.058;30.346;2023-03-04T14:42:07;98795.41;;;2.07;56.99
50650;BME280;36621;60.058;30.346;2023-03-04T14:49:44;98713.81;;;1.33;57.54
50650;BME280;36621;60.058;30.346;2023-03-04T14:57:23;98782.53;;;1.56;57.94
50650;BME280;36621;60.058;30.346;2023-03-04T15:04:58;98755.75;;;1.29;58.46
50650;BME280;36621;60.058;30.346;2023-03-04T15:12:34;98757.75;;;1.11;58.76
50650;BME280;36621;60.058;30.346;2023-03-04T15:20:21;98820.09;;;1.03;60.68
50650;BME280;36621;60.058;30.346;2023-03-04T15:27:59;98778.53;;;0.83;60.73
50650;BME280;36621;60.058;30.346;2023-03-04T15:35:33;98827.44;;;1.18;60.26
50650;BME280;36621;60.058;30.346;2023-03-04T15:43:06;98772.09;;;0.84;60.46
50650;BME280;36621;60.058;30.346;2023-03-04T15:50:42;98864.94;;;1.35;61.37
50650;BME280;36621;60.058;30.346;2023-03-04T15:58:18;98857.22;;;1.44;60.87
50650;BME280;36621;60.058;30.346;2023-03-04T16:05:51;98871.25;;;1.51;60.84
50650;BME280;36621;60.058;30.346;2023-03-04T16:13:26;98860.63;;;1.29;61.94
50650;BME280;36621;60.058;30.346;2023-03-04T16:20:59;98797.81;;;1.08;61.58
50650;BME280;36621;60.058;30.346;2023-03-04T16:28:31;98883.66;;;1.57;61.56
50650;BME280;36621;60.058;30.346;2023-03-04T16:36:11;98863.13;;;1.41;61.91
50650;BME280;36621;60.058;30.346;2023-03-04T16:43:47;98881.47;;;1.49;62.03
50650;BME280;36621;60.058;30.346;2023-03-04T16:51:20;98874.59;;;1.31;62.58
50650;BME280;36621;60.058;30.346;2023-03-04T16:58:54;98868.16;;;1.32;62.20
50650;BME280;36621;60.058;30.346;2023-03-04T17:06:26;98864.34;;;1.28;62.34
50650;BME280;36621;60.058;30.346;2023-03-04T17:13:59;98861.75;;;1.38;62.30
50650;BME280;36621;60.058;30.346;2023-03-04T17:21:31;98841.47;;;1.25;62.37
50650;BME280;36621;60.058;30.346;2023-03-04T17:29:04;98890.81;;;1.41;62.80
50650;BME280;36621;60.058;30.346;2023-03-04T17:36:36;98893.47;;;1.36;62.35
50650;BME280;36621;60.058;30.346;2023-03-04T17:44:10;98901.34;;;1.48;62.59
50650;BME280;36621;60.058;30.346;2023-03-04T17:51:44;98873.16;;;1.18;62.82
50650;BME280;36621;60.058;30.346;2023-03-04T17:59:17;98913.94;;;1.42;62.84
50650;BME280;36621;60.058;30.346;2023-03-04T18:06:49;98908.91;;;1.51;62.67
50650;BME280;36621;60.058;30.346;2023-03-04T18:14:32;98904.97;;;1.64;62.79
50650;BME280;36621;60.058;30.346;2023-03-04T18:22:05;98794.72;;;0.89;62.93
50650;BME280;36621;60.058;30.346;2023-03-04T18:30:05;98711.59;;;0.44;62.57
50650;BME280;36621;60.058;30.346;2023-03-04T18:37:53;98862.25;;;1.35;63.02
50650;BME280;36621;60.058;30.346;2023-03-04T18:45:31;98904.44;;;1.67;63.07
50650;BME280;36621;60.058;30.346;2023-03-04T18:53:09;98884.38;;;1.42;63.16
50650;BME280;36621;60.058;30.346;2023-03-04T19:00:46;98833.81;;;1.07;63.22
50650;BME280;36621;60.058;30.346;2023-03-04T19:08:21;98902.16;;;1.48;63.50
50650;BME280;36621;60.058;30.346;2023-03-04T19:16:13;98827.63;;;1.06;63.24
50650;BME280;36621;60.058;30.346;2023-03-04T19:23:50;98910.78;;;1.50;63.52
50650;BME280;36621;60.058;30.346;2023-03-04T19:31:27;98914.56;;;1.54;63.33
50650;BME280;36621;60.058;30.346;2023-03-04T19:39:03;98790.81;;;0.74;63.68
50650;BME280;36621;60.058;30.346;2023-03-04T19:46:50;98832.22;;;1.11;63.50
50650;BME280;36621;60.058;30.346;2023-03-04T19:54:43;98789.03;;;0.85;63.44
50650;BME280;36621;60.058;30.346;2023-03-04T20:02:53;98840.16;;;1.28;63.57
50650;BME280;36621;60.058;30.346;2023-03-04T20:11:05;98669.88;;;-0.01;63.73
50650;BME280;36621;60.058;30.346;2023-03-04T20:18:54;98927.53;;;1.63;63.51
